Impacts TAF Board
For situational awareness. Not to be used for flight planning purposes.
IDs:

KPDX - Portland Intl Arpt, OR, US

Issued at 1720 UTC 17 Nov 2019
Updated at 1952 UTC 17 Nov 2019
Potential Impact None Slight Moderate High
Time1938Z 17/20Z 17/21Z 17/22Z 17/23Z 18/00Z 18/01Z 18/02Z 18/03Z 18/04Z 18/05Z 18/06Z 18/07Z 18/08Z>>
Type OBS PRVL PRVL PRVL PRVL PRVL PRVL PRVL PRVL PRVL PRVL PRVL PRVL PRVL
VIS 3 >6 >6 >6 >6 >6 >6 >6 >6 >6 >6 >6 6 6
CIG 23 50 50 50 30 30 30 30 30 30 30 30 3 3
Cover OVC OVC OVC OVC OVC OVC OVC OVC OVC OVC OVC OVC OVC OVC
FltCat MVFR VFR VFR VFR MVFR MVFR MVFR MVFR MVFR MVFR MVFR MVFR LIFR LIFR
WX -RA BR -- -- -- -- -- -- -- -- -- -- -- BR BR
WDir 80 150 150 150 180 180 180 180 180 320 320 320 VRB VRB
WSpd 5 6 6 6 3 3 3 3 3 2 2 2 0 0
WGst -- -- -- -- -- -- -- -- -- -- -- -- -- --
Raw TAF
KPDX 171720Z 1718/1818 15006KT P6SM OVC050
  FM172300 18003KT P6SM SCT015 OVC030
  FM180400 32002KT P6SM OVC030
  FM180700 00000KT 6SM BR OVC003
  FM181300 32002KT 4SM BR OVC003
  FM181500 34002KT 1/2SM FG OVC003


Raw METAR
KPDX 171938Z 08005KT 3SM -RA BR BKN023 OVC032 12/09 A3022 RMK AO2 P0005 T01170094
KPDX 171853Z 14004KT 3SM RA OVC032 12/09 A3023 RMK AO2 RAB44 SLP235 P0002 T01220089
KPDX 171753Z 12006KT 10SM BKN036 OVC090 12/09 A3020 RMK AO2 SLP227 T01220089 10122 20100 50006
KPDX 171653Z 12008KT 10SM BKN044 OVC080 12/09 A3021 RMK AO2 SLP228 T01170089

METAR Board
Radar Display
Forecast Discussion
For situational awareness. Not to be used for flight planning purposes.